Merrill, Iowa
Current Conditions -  °F | °C
As of 3:15 AM on Friday 19 Dec 2014 (Local Time) from KLRJ Reporting Station
Haze Haze  
Wind Chill: 23°   Ceiling: 1300
Heat Index: 30°   Visibility: 6mi
Dew Point: 28°   Wind: 8mph
Humidity: 93%   Direction: 180°S
Pressure: 30.21"   Gusts: NA
Location:  42.72°N, 96.25°W
Report Text: KLRJ 190915Z AUTO 18007KT 6SM BR SCT010 BKN013 OVC026 M01/M02 A3021 RMK AO2
Loading
Personal Weather Stations






























Interactive Weather Map New forecast layout! Learn more

10-Day Weather Forecast

Advertisements
Track Severe Weather on mobile